Time;durP1;ratioP1;P1;durP2;ratioP2;P2;SDS_P1;SDS_P2;PMS_P1;PMS_P2;Temp;Humidity;BMP_temperature;BMP_pressure;BME280_temperature;BME280_humidity;BME280_pressure;Samples;Min_cycle;Max_cycle;Signal;HPM_P1;HPM_P2
2022/04/15 00:01:18;;;;;;;9.50;4.90;;;;;;;;;;7388193;19;20007;-81
2022/04/15 00:03:43;;;;;;;7.38;4.22;;;;;;;;;;7387882;19;19999;-80
2022/04/15 00:06:10;;;;;;;7.20;4.20;;;;;;;;;;7383445;19;20031;-82
2022/04/15 00:08:36;;;;;;;9.18;4.80;;;;;;;;;;7386812;19;20458;-80
2022/04/15 00:11:02;;;;;;;14.85;7.95;;;;;;;;;;7391641;19;20006;-82
2022/04/15 00:13:29;;;;;;;6.10;4.70;;;;;;;;;;7397872;19;20518;-80
2022/04/15 00:15:55;;;;;;;6.95;4.78;;;;;;;;;;7393608;19;20356;-82
2022/04/15 00:18:21;;;;;;;6.93;4.65;;;;;;;;;;7392465;19;19991;-81
2022/04/15 00:20:46;;;;;;;6.75;5.10;;;;;;;;;;7399063;19;20003;-81
2022/04/15 00:23:11;;;;;;;8.27;5.18;;;;;;;;;;7391075;19;20061;-81
2022/04/15 00:25:36;;;;;;;6.72;4.50;;;;;;;;;;7394019;19;20021;-80
2022/04/15 00:28:02;;;;;;;5.65;4.82;;;;;;;;;;7395349;19;20031;-81
2022/04/15 00:30:27;;;;;;;9.63;4.85;;;;;;;;;;7398678;19;20465;-81
2022/04/15 00:32:52;;;;;;;7.15;4.70;;;;;;;;;;7396667;19;20023;-79
2022/04/15 00:35:18;;;;;;;5.95;4.38;;;;;;;;;;7394961;19;20525;-80
2022/04/15 00:37:43;;;;;;;6.55;4.40;;;;;;;;;;7397583;19;20007;-80
2022/04/15 00:40:10;;;;;;;7.80;4.97;;;;;;;;;;7392235;19;20003;-81
2022/04/15 00:42:35;;;;;;;6.45;4.55;;;;;;;;;;7393532;19;20002;-81
2022/04/15 00:45:02;;;;;;;6.85;4.60;;;;;;;;;;7397220;19;19999;-83
2022/04/15 00:47:36;;;;;;;9.30;4.93;;;;;;;;;;7401687;19;20043;-83
2022/04/15 00:50:03;;;;;;;6.22;4.78;;;;;;;;;;7399704;19;20078;-82
2022/04/15 00:52:34;;;;;;;6.70;4.60;;;;;;;;;;7401259;19;20002;-84
2022/04/15 00:55:03;;;;;;;7.07;4.75;;;;;;;;;;7402148;19;20009;-83
2022/04/15 00:57:30;;;;;;;8.63;4.90;;;;;;;;;;7399723;19;20017;-83
2022/04/15 00:59:58;;;;;;;8.20;4.75;;;;;;;;;;7398012;19;20002;-81
2022/04/15 01:02:24;;;;;;;6.45;4.63;;;;;;;;;;7402078;19;20024;-84
2022/04/15 01:04:52;;;;;;;7.13;4.80;;;;;;;;;;7399230;19;19995;-83
2022/04/15 01:07:22;;;;;;;6.13;4.15;;;;;;;;;;7398540;19;19998;-83
2022/04/15 01:09:51;;;;;;;6.35;4.28;;;;;;;;;;7394662;19;20477;-81
2022/04/15 01:12:18;;;;;;;9.73;5.60;;;;;;;;;;7396733;19;20004;-81
2022/04/15 01:14:43;;;;;;;8.68;5.28;;;;;;;;;;7395812;19;19999;-80
2022/04/15 01:17:08;;;;;;;7.47;4.53;;;;;;;;;;7393598;19;20014;-81
2022/04/15 01:19:34;;;;;;;5.65;3.40;;;;;;;;;;7393553;19;20003;-80
2022/04/15 01:22:02;;;;;;;4.63;3.75;;;;;;;;;;7394805;19;20021;-81
2022/04/15 01:24:29;;;;;;;4.93;3.20;;;;;;;;;;7394843;19;20074;-81
2022/04/15 01:26:54;;;;;;;8.48;5.00;;;;;;;;;;7394499;19;20038;-80
2022/04/15 01:29:19;;;;;;;6.72;4.60;;;;;;;;;;7397276;19;20023;-80
2022/04/15 01:31:44;;;;;;;6.70;4.80;;;;;;;;;;7394478;19;20007;-80
2022/04/15 01:34:10;;;;;;;8.20;5.05;;;;;;;;;;7395257;19;20018;-81
2022/04/15 01:36:35;;;;;;;6.93;4.68;;;;;;;;;;7395573;19;20006;-81
2022/04/15 01:39:00;;;;;;;7.55;4.25;;;;;;;;;;7394284;19;20417;-81
2022/04/15 01:41:26;;;;;;;4.65;3.80;;;;;;;;;;7414831;19;20010;-77
2022/04/15 01:43:51;;;;;;;6.63;4.15;;;;;;;;;;7424345;19;20016;-77
2022/04/15 01:46:16;;;;;;;6.57;4.13;;;;;;;;;;7418720;19;20027;-78
2022/04/15 01:48:42;;;;;;;7.15;4.85;;;;;;;;;;7421525;19;19990;-77
2022/04/15 01:51:07;;;;;;;13.50;4.78;;;;;;;;;;7416277;19;20014;-79
2022/04/15 01:53:32;;;;;;;8.63;5.53;;;;;;;;;;7395446;19;20010;-79
2022/04/15 01:55:58;;;;;;;5.93;4.97;;;;;;;;;;7388406;19;20101;-79
2022/04/15 01:58:23;;;;;;;9.05;5.20;;;;;;;;;;7389706;19;20006;-80
2022/04/15 02:00:48;;;;;;;6.25;5.28;;;;;;;;;;7393630;19;19999;-79
2022/04/15 02:03:14;;;;;;;6.88;4.97;;;;;;;;;;7389474;19;20011;-79
2022/04/15 02:05:39;;;;;;;6.93;3.97;;;;;;;;;;7389933;19;20322;-79
2022/04/15 02:08:04;;;;;;;8.45;5.25;;;;;;;;;;7389581;19;19995;-78
2022/04/15 02:10:30;;;;;;;6.18;5.20;;;;;;;;;;7389128;19;20415;-79
2022/04/15 02:12:55;;;;;;;6.38;4.78;;;;;;;;;;7387962;19;19998;-79
2022/04/15 02:15:20;;;;;;;8.57;5.60;;;;;;;;;;7389525;19;19991;-78
2022/04/15 02:17:46;;;;;;;9.25;5.85;;;;;;;;;;7391604;19;20341;-79
2022/04/15 02:20:11;;;;;;;8.60;5.22;;;;;;;;;;7388634;19;20007;-80
2022/04/15 02:22:37;;;;;;;6.50;4.95;;;;;;;;;;7389897;19;20014;-78
2022/04/15 02:25:03;;;;;;;6.70;5.57;;;;;;;;;;7390327;19;19995;-78
2022/04/15 02:27:28;;;;;;;7.10;5.50;;;;;;;;;;7390114;19;20513;-79
2022/04/15 02:29:53;;;;;;;8.23;5.07;;;;;;;;;;7388096;19;20006;-80
2022/04/15 02:32:19;;;;;;;8.63;5.50;;;;;;;;;;7391999;19;20030;-78
2022/04/15 02:34:44;;;;;;;9.73;5.78;;;;;;;;;;7389307;19;20006;-78
2022/04/15 02:37:09;;;;;;;7.57;5.53;;;;;;;;;;7391315;19;20078;-79
2022/04/15 02:39:34;;;;;;;6.20;4.40;;;;;;;;;;7388580;19;20307;-78
2022/04/15 02:42:00;;;;;;;5.80;4.28;;;;;;;;;;7390043;19;20007;-79
2022/04/15 02:44:27;;;;;;;6.90;4.90;;;;;;;;;;7389154;19;19999;-78
2022/04/15 02:46:54;;;;;;;9.15;5.70;;;;;;;;;;7387397;19;20016;-78
2022/04/15 02:49:19;;;;;;;7.75;5.97;;;;;;;;;;7387412;19;19999;-77
2022/04/15 02:51:44;;;;;;;7.82;5.82;;;;;;;;;;7390043;19;20014;-79
2022/04/15 02:54:10;;;;;;;7.03;5.47;;;;;;;;;;7390374;19;20136;-77
2022/04/15 02:56:35;;;;;;;7.30;5.97;;;;;;;;;;7387548;19;20000;-78
2022/04/15 02:59:00;;;;;;;10.15;6.88;;;;;;;;;;7387607;19;20458;-78
2022/04/15 03:01:25;;;;;;;9.65;6.40;;;;;;;;;;7388564;19;19999;-77
2022/04/15 03:03:51;;;;;;;11.00;6.95;;;;;;;;;;7387189;19;20018;-79
2022/04/15 03:06:16;;;;;;;7.25;5.78;;;;;;;;;;7387891;19;19994;-77
2022/04/15 03:08:42;;;;;;;12.95;6.65;;;;;;;;;;7387850;19;20539;-78
2022/04/15 03:11:07;;;;;;;7.18;5.32;;;;;;;;;;7390992;19;20007;-78
2022/04/15 03:13:34;;;;;;;7.68;6.32;;;;;;;;;;7388567;19;20018;-79
2022/04/15 03:15:59;;;;;;;9.90;6.82;;;;;;;;;;7387342;19;20010;-77
2022/04/15 03:18:25;;;;;;;9.95;6.60;;;;;;;;;;7387738;19;20080;-78
2022/04/15 03:20:50;;;;;;;8.45;5.13;;;;;;;;;;7388103;19;19999;-77
2022/04/15 03:23:19;;;;;;;8.90;6.35;;;;;;;;;;7386331;19;20003;-78
2022/04/15 03:25:46;;;;;;;9.60;6.78;;;;;;;;;;7387200;19;20010;-78
2022/04/15 03:28:11;;;;;;;8.80;7.03;;;;;;;;;;7391081;19;20011;-77
2022/04/15 03:30:36;;;;;;;9.57;5.88;;;;;;;;;;7389748;19;20018;-77
2022/04/15 03:33:02;;;;;;;7.78;5.88;;;;;;;;;;7391499;19;20446;-78
2022/04/15 03:35:27;;;;;;;9.32;5.90;;;;;;;;;;7387212;19;20376;-77
2022/04/15 03:37:52;;;;;;;10.18;6.15;;;;;;;;;;7392926;19;19995;-78
2022/04/15 03:40:19;;;;;;;7.68;6.03;;;;;;;;;;7387816;19;20501;-78
2022/04/15 03:42:49;;;;;;;8.25;5.43;;;;;;;;;;7386624;19;20748;-79
2022/04/15 03:45:18;;;;;;;8.27;5.63;;;;;;;;;;7389829;19;20407;-77
2022/04/15 03:47:43;;;;;;;7.15;6.25;;;;;;;;;;7393884;19;20026;-78
2022/04/15 03:50:13;;;;;;;10.60;7.22;;;;;;;;;;7395072;19;19995;-78
2022/04/15 03:52:42;;;;;;;9.80;7.20;;;;;;;;;;7395706;19;20015;-77
2022/04/15 03:55:11;;;;;;;11.40;6.78;;;;;;;;;;7394581;19;20006;-78
2022/04/15 03:57:37;;;;;;;8.85;7.00;;;;;;;;;;7394740;19;20341;-78
2022/04/15 04:00:05;;;;;;;8.63;7.38;;;;;;;;;;7396302;19;20025;-78
2022/04/15 04:02:30;;;;;;;10.48;5.90;;;;;;;;;;7393555;19;20013;-78
2022/04/15 04:04:55;;;;;;;9.35;6.97;;;;;;;;;;7393768;19;20017;-78
2022/04/15 04:07:21;;;;;;;9.82;6.63;;;;;;;;;;7395169;19;19998;-78
2022/04/15 04:09:46;;;;;;;8.95;7.03;;;;;;;;;;7393175;19;19999;-77
2022/04/15 04:12:11;;;;;;;9.88;7.53;;;;;;;;;;7394740;19;19991;-78
2022/04/15 04:14:37;;;;;;;8.57;6.22;;;;;;;;;;7393794;19;19991;-78
2022/04/15 04:17:02;;;;;;;7.07;6.07;;;;;;;;;;7394718;19;20074;-78
2022/04/15 04:19:27;;;;;;;11.43;7.47;;;;;;;;;;7394059;19;20002;-76
2022/04/15 04:21:53;;;;;;;8.90;6.68;;;;;;;;;;7397255;19;20031;-77
2022/04/15 04:24:18;;;;;;;10.18;7.90;;;;;;;;;;7389490;19;19998;-77
2022/04/15 04:26:43;;;;;;;9.73;7.43;;;;;;;;;;7391517;19;19998;-77
2022/04/15 04:29:08;;;;;;;11.50;7.88;;;;;;;;;;7393359;19;20067;-77
2022/04/15 04:31:33;;;;;;;12.07;8.05;;;;;;;;;;7390886;19;20003;-76
2022/04/15 04:33:59;;;;;;;13.20;9.38;;;;;;;;;;7398753;19;20521;-77
2022/04/15 04:36:24;;;;;;;11.07;8.18;;;;;;;;;;7391137;19;20014;-78
2022/04/15 04:38:49;;;;;;;11.50;8.02;;;;;;;;;;7392547;19;20023;-78
2022/04/15 04:41:14;;;;;;;8.30;7.18;;;;;;;;;;7393487;19;20047;-77
2022/04/15 04:43:40;;;;;;;10.35;7.28;;;;;;;;;;7391336;19;20359;-77
2022/04/15 04:46:05;;;;;;;11.73;8.45;;;;;;;;;;7390046;19;20139;-78
2022/04/15 04:48:31;;;;;;;9.02;5.68;;;;;;;;;;7391546;19;20007;-78
2022/04/15 04:50:56;;;;;;;10.00;7.22;;;;;;;;;;7395670;19;19995;-77
2022/04/15 04:53:21;;;;;;;10.45;7.18;;;;;;;;;;7392571;19;20007;-77
2022/04/15 04:55:47;;;;;;;11.52;7.85;;;;;;;;;;7390039;19;20002;-77
2022/04/15 04:58:12;;;;;;;8.15;7.13;;;;;;;;;;7389512;19;20402;-77
2022/04/15 05:00:37;;;;;;;10.02;7.63;;;;;;;;;;7391114;19;20024;-78
2022/04/15 05:03:02;;;;;;;8.77;6.82;;;;;;;;;;7390942;19;20062;-79
2022/04/15 05:05:28;;;;;;;9.85;7.05;;;;;;;;;;7390508;19;20426;-79
2022/04/15 05:07:53;;;;;;;8.82;6.95;;;;;;;;;;7393751;19;19995;-79
2022/04/15 05:10:18;;;;;;;12.43;8.27;;;;;;;;;;7394548;19;20138;-79
2022/04/15 05:12:45;;;;;;;12.02;8.40;;;;;;;;;;7395452;19;20003;-79
2022/04/15 05:15:11;;;;;;;10.13;7.70;;;;;;;;;;7390687;19;20065;-79
2022/04/15 05:17:37;;;;;;;10.73;7.68;;;;;;;;;;7391677;19;19998;-77
2022/04/15 05:20:03;;;;;;;9.25;7.32;;;;;;;;;;7390852;19;20006;-77
2022/04/15 05:22:28;;;;;;;10.95;7.32;;;;;;;;;;7391253;19;20378;-77
2022/04/15 05:24:53;;;;;;;10.95;7.93;;;;;;;;;;7391650;19;20485;-76
2022/04/15 05:27:19;;;;;;;9.13;7.05;;;;;;;;;;7388972;19;20017;-78
2022/04/15 05:29:44;;;;;;;9.88;7.53;;;;;;;;;;7390045;19;20048;-79
2022/04/15 05:32:09;;;;;;;11.60;8.23;;;;;;;;;;7389832;19;20019;-79
2022/04/15 05:34:34;;;;;;;12.57;8.35;;;;;;;;;;7391295;19;20061;-78
2022/04/15 05:37:00;;;;;;;8.75;7.50;;;;;;;;;;7392506;19;20347;-79
2022/04/15 05:39:25;;;;;;;9.48;6.68;;;;;;;;;;7389572;19;19997;-78
2022/04/15 05:41:51;;;;;;;13.32;8.07;;;;;;;;;;7390522;19;20666;-76
2022/04/15 05:44:16;;;;;;;12.10;8.48;;;;;;;;;;7388081;19;20459;-77
2022/04/15 05:46:42;;;;;;;10.75;8.20;;;;;;;;;;7387277;19;20010;-77
2022/04/15 05:49:15;;;;;;;10.07;7.38;;;;;;;;;;7391341;19;19995;-77
2022/04/15 05:51:45;;;;;;;11.02;7.30;;;;;;;;;;7391476;19;20039;-77
2022/04/15 05:54:11;;;;;;;11.13;7.82;;;;;;;;;;7392063;19;20002;-77
2022/04/15 05:56:37;;;;;;;10.73;7.82;;;;;;;;;;7390117;19;20101;-77
2022/04/15 05:59:02;;;;;;;10.02;6.82;;;;;;;;;;7392701;19;20007;-78
2022/04/15 06:01:28;;;;;;;10.10;8.02;;;;;;;;;;7395680;19;20087;-77
2022/04/15 06:03:53;;;;;;;11.63;8.30;;;;;;;;;;7390475;19;20015;-77
2022/04/15 06:06:18;;;;;;;12.80;7.22;;;;;;;;;;7389389;19;20434;-77
2022/04/15 06:08:43;;;;;;;16.50;8.02;;;;;;;;;;7390527;19;20022;-77
2022/04/15 06:11:09;;;;;;;14.07;8.57;;;;;;;;;;7387303;19;20074;-77
2022/04/15 06:13:34;;;;;;;13.55;8.43;;;;;;;;;;7391482;19;20010;-77
2022/04/15 06:16:00;;;;;;;15.13;9.43;;;;;;;;;;7390590;19;20078;-77
2022/04/15 06:18:26;;;;;;;12.57;8.63;;;;;;;;;;7389573;19;19999;-77
2022/04/15 06:20:52;;;;;;;10.75;8.13;;;;;;;;;;7389914;19;20018;-77
2022/04/15 06:23:18;;;;;;;13.30;9.00;;;;;;;;;;7387303;19;20002;-77
2022/04/15 06:25:44;;;;;;;18.08;10.18;;;;;;;;;;7389395;19;20006;-77
2022/04/15 06:28:11;;;;;;;12.23;9.38;;;;;;;;;;7388564;19;20471;-77
2022/04/15 06:30:36;;;;;;;12.38;9.48;;;;;;;;;;7389518;19;20002;-77
2022/04/15 06:33:05;;;;;;;13.25;9.35;;;;;;;;;;7391729;19;20006;-77
2022/04/15 06:35:30;;;;;;;15.45;10.13;;;;;;;;;;7389430;19;20042;-77
2022/04/15 06:37:55;;;;;;;11.52;9.25;;;;;;;;;;7389851;19;20003;-77
2022/04/15 06:40:21;;;;;;;12.55;9.40;;;;;;;;;;7390005;19;20086;-77
2022/04/15 06:42:46;;;;;;;14.75;9.73;;;;;;;;;;7389078;19;19994;-77
2022/04/15 06:45:13;;;;;;;14.73;9.70;;;;;;;;;;7387499;19;20003;-77
2022/04/15 06:47:38;;;;;;;11.82;8.80;;;;;;;;;;7387851;19;20027;-77
2022/04/15 06:50:04;;;;;;;13.80;9.20;;;;;;;;;;7389282;19;20000;-77
2022/04/15 06:52:29;;;;;;;13.52;8.98;;;;;;;;;;7392773;19;20033;-77
2022/04/15 06:54:55;;;;;;;13.32;9.80;;;;;;;;;;7388334;19;20467;-77
2022/04/15 06:57:20;;;;;;;13.82;9.48;;;;;;;;;;7388216;19;20465;-77
2022/04/15 06:59:45;;;;;;;14.30;8.80;;;;;;;;;;7387504;19;20112;-77
2022/04/15 07:02:10;;;;;;;11.13;8.10;;;;;;;;;;7387291;19;20356;-77
2022/04/15 07:04:36;;;;;;;13.30;8.60;;;;;;;;;;7388227;19;20010;-77
2022/04/15 07:07:01;;;;;;;11.70;8.85;;;;;;;;;;7387717;19;20578;-77
2022/04/15 07:09:27;;;;;;;10.82;8.13;;;;;;;;;;7388596;19;20002;-77
2022/04/15 07:11:53;;;;;;;15.27;9.23;;;;;;;;;;7389119;19;20002;-77
2022/04/15 07:14:18;;;;;;;11.68;8.68;;;;;;;;;;7390079;19;20002;-77
2022/04/15 07:16:43;;;;;;;11.80;8.10;;;;;;;;;;7386732;19;19995;-77
2022/04/15 07:19:09;;;;;;;12.48;7.78;;;;;;;;;;7391347;19;19998;-77
2022/04/15 07:21:35;;;;;;;11.95;8.35;;;;;;;;;;7392025;19;20085;-77
2022/04/15 07:24:01;;;;;;;11.73;7.80;;;;;;;;;;7391926;19;19999;-77
2022/04/15 07:26:26;;;;;;;12.88;7.90;;;;;;;;;;7392190;19;20001;-77
2022/04/15 07:28:51;;;;;;;12.65;7.85;;;;;;;;;;7391952;19;20015;-77
2022/04/15 07:31:16;;;;;;;13.73;7.28;;;;;;;;;;7393716;19;20006;-77
2022/04/15 07:33:42;;;;;;;12.45;7.90;;;;;;;;;;7394134;19;19995;-77
2022/04/15 07:36:31;;;;;;;10.98;7.50;;;;;;;;;;7391663;19;19991;-78
2022/04/15 07:38:53;;;;;;;;;;;;;;;;;;7392193;19;20018;-77
2022/04/15 07:41:18;;;;;;;13.60;7.80;;;;;;;;;;7391350;19;19923;-77
2022/04/15 07:43:44;;;;;;;11.90;7.20;;;;;;;;;;7389562;19;20239;-78
2022/04/15 07:46:10;;;;;;;10.82;6.82;;;;;;;;;;7390133;19;20079;-77
2022/04/15 07:48:35;;;;;;;10.13;6.65;;;;;;;;;;7389205;19;20881;-78
2022/04/15 07:51:01;;;;;;;9.63;6.78;;;;;;;;;;7392218;19;19994;-78
2022/04/15 07:53:26;;;;;;;10.68;6.03;;;;;;;;;;7392066;19;20470;-78
2022/04/15 07:55:51;;;;;;;9.18;5.90;;;;;;;;;;7390536;19;20003;-78
2022/04/15 07:58:18;;;;;;;8.23;6.38;;;;;;;;;;7391395;19;20011;-78
2022/04/15 08:00:44;;;;;;;12.32;6.95;;;;;;;;;;7391363;19;20010;-78
2022/04/15 08:03:09;;;;;;;9.00;6.30;;;;;;;;;;7390836;19;20006;-78
2022/04/15 08:05:34;;;;;;;9.20;5.78;;;;;;;;;;7390953;19;20096;-78
2022/04/15 08:08:00;;;;;;;9.23;5.20;;;;;;;;;;7391297;19;20090;-78
2022/04/15 08:10:28;;;;;;;10.40;6.55;;;;;;;;;;7389618;19;20473;-78
2022/04/15 08:12:54;;;;;;;9.82;6.50;;;;;;;;;;7391740;19;20013;-78
2022/04/15 08:15:20;;;;;;;9.20;5.95;;;;;;;;;;7393774;19;20020;-79
2022/04/15 08:17:45;;;;;;;7.13;5.47;;;;;;;;;;7392228;19;20007;-79
2022/04/15 08:20:11;;;;;;;8.95;5.70;;;;;;;;;;7392103;19;20489;-79
2022/04/15 08:22:36;;;;;;;9.30;6.40;;;;;;;;;;7392364;19;20026;-79
2022/04/15 08:25:04;;;;;;;9.20;6.43;;;;;;;;;;7393420;19;20029;-79
2022/04/15 08:27:29;;;;;;;7.93;6.22;;;;;;;;;;7393764;19;20104;-79
2022/04/15 08:29:54;;;;;;;7.22;5.00;;;;;;;;;;7396439;19;20014;-79
2022/04/15 08:32:20;;;;;;;8.15;5.10;;;;;;;;;;7396138;19;20006;-79
2022/04/15 08:34:46;;;;;;;9.50;5.38;;;;;;;;;;7400705;19;20540;-79
2022/04/15 08:37:13;;;;;;;8.30;5.70;;;;;;;;;;7411129;19;19999;-78
2022/04/15 08:39:38;;;;;;;6.75;5.10;;;;;;;;;;7422990;19;20052;-78
2022/04/15 08:42:07;;;;;;;8.85;6.32;;;;;;;;;;7424384;19;20139;-78
2022/04/15 08:44:32;;;;;;;8.00;5.65;;;;;;;;;;7424085;19;20013;-78
2022/04/15 08:46:58;;;;;;;7.65;5.38;;;;;;;;;;7424676;19;20006;-78
2022/04/15 08:49:25;;;;;;;12.38;5.65;;;;;;;;;;7405959;19;20332;-79
2022/04/15 08:51:50;;;;;;;5.75;4.88;;;;;;;;;;7399334;19;20003;-79
2022/04/15 08:54:17;;;;;;;6.70;4.85;;;;;;;;;;7399206;19;20118;-79
2022/04/15 08:56:43;;;;;;;7.97;5.40;;;;;;;;;;7398140;19;20058;-79
2022/04/15 08:59:09;;;;;;;7.03;5.15;;;;;;;;;;7399353;19;20380;-79
2022/04/15 09:01:34;;;;;;;8.90;5.18;;;;;;;;;;7399193;19;20557;-79
2022/04/15 09:04:00;;;;;;;5.32;3.80;;;;;;;;;;7396904;19;19987;-79
2022/04/15 09:06:31;;;;;;;6.18;3.60;;;;;;;;;;7401003;19;20028;-80
2022/04/15 09:09:04;;;;;;;10.20;5.13;;;;;;;;;;7398433;19;20102;-79
2022/04/15 09:11:37;;;;;;;6.72;5.07;;;;;;;;;;7398501;19;19999;-79
2022/04/15 09:14:12;;;;;;;5.45;4.47;;;;;;;;;;7399408;19;20038;-79
2022/04/15 09:16:47;;;;;;;8.05;4.60;;;;;;;;;;7395247;19;20025;-79
2022/04/15 09:19:13;;;;;;;;;;;;;;;;;;7402624;19;20016;-79
2022/04/15 09:21:40;;;;;;;8.48;4.78;;;;;;;;;;7400966;19;19923;-78
2022/04/15 09:24:07;;;;;;;9.40;5.70;;;;;;;;;;7396761;19;19998;-79
2022/04/15 09:26:33;;;;;;;8.20;5.28;;;;;;;;;;7396704;19;20154;-80
2022/04/15 09:28:58;;;;;;;7.78;5.35;;;;;;;;;;7397806;19;20023;-79
2022/04/15 09:31:24;;;;;;;12.02;6.30;;;;;;;;;;7397446;19;20005;-79
2022/04/15 09:34:00;;;;;;;10.30;6.10;;;;;;;;;;7397159;19;20065;-80
2022/04/15 09:36:36;;;;;;;7.72;5.00;;;;;;;;;;7396629;19;20031;-80
2022/04/15 09:39:11;;;;;;;7.25;4.47;;;;;;;;;;7397243;19;20010;-80
2022/04/15 09:41:50;;;;;;;6.97;4.78;;;;;;;;;;7397432;19;19998;-80
2022/04/15 09:44:15;;;;;;;7.25;4.88;;;;;;;;;;7394713;19;19995;-78
2022/04/15 09:46:41;;;;;;;7.88;4.55;;;;;;;;;;7393660;19;20090;-78
2022/04/15 09:49:08;;;;;;;6.07;4.55;;;;;;;;;;7393877;19;20010;-78
2022/04/15 09:51:44;;;;;;;8.25;4.93;;;;;;;;;;7395016;19;19998;-78
2022/04/15 09:54:11;;;;;;;;;;;;;;;;;;7395599;19;20022;-79
2022/04/15 09:56:39;;;;;;;7.05;5.10;;;;;;;;;;7394956;19;20156;-78
2022/04/15 09:59:13;;;;;;;8.23;5.00;;;;;;;;;;7397649;19;20010;-79
2022/04/15 10:01:45;;;;;;;6.95;5.00;;;;;;;;;;7397389;19;20007;-79
2022/04/15 10:04:11;;;;;;;7.55;4.68;;;;;;;;;;7395333;19;20444;-79
2022/04/15 10:06:38;;;;;;;8.35;5.40;;;;;;;;;;7393886;19;20007;-79
2022/04/15 10:09:06;;;;;;;8.63;4.95;;;;;;;;;;7398776;19;20003;-79
2022/04/15 10:11:35;;;;;;;6.68;4.40;;;;;;;;;;7397523;19;20007;-78
2022/04/15 10:14:02;;;;;;;9.07;4.50;;;;;;;;;;7398698;19;20006;-79
2022/04/15 10:16:28;;;;;;;7.00;4.28;;;;;;;;;;7395269;19;20028;-79
2022/04/15 10:18:54;;;;;;;8.35;4.35;;;;;;;;;;7395290;19;20042;-79
2022/04/15 10:21:19;;;;;;;5.18;4.07;;;;;;;;;;7396320;19;20007;-80
2022/04/15 10:23:45;;;;;;;6.25;4.45;;;;;;;;;;7395388;19;20489;-79
2022/04/15 10:26:11;;;;;;;6.55;4.05;;;;;;;;;;7395837;19;19999;-79
2022/04/15 10:28:42;;;;;;;6.57;4.38;;;;;;;;;;7395191;19;20627;-79
2022/04/15 10:31:16;;;;;;;6.63;4.13;;;;;;;;;;7395889;19;20003;-79
2022/04/15 10:33:43;;;;;;;8.20;4.55;;;;;;;;;;7396348;19;20118;-79
2022/04/15 10:36:24;;;;;;;9.52;5.28;;;;;;;;;;7398934;19;20006;-79
2022/04/15 10:39:02;;;;;;;6.15;4.28;;;;;;;;;;7391612;19;20072;-79
2022/04/15 10:41:29;;;;;;;7.68;4.07;;;;;;;;;;7390285;19;20002;-77
2022/04/15 10:43:57;;;;;;;9.68;4.20;;;;;;;;;;7388946;19;20002;-79
2022/04/15 10:46:29;;;;;;;6.47;4.40;;;;;;;;;;7387129;19;20004;-79
2022/04/15 10:48:57;;;;;;;8.60;4.18;;;;;;;;;;7388840;19;19995;-79
2022/04/15 10:51:25;;;;;;;6.47;3.72;;;;;;;;;;7388343;19;19998;-77
2022/04/15 10:53:51;;;;;;;6.50;4.38;;;;;;;;;;7389180;19;20006;-77
2022/04/15 10:56:18;;;;;;;6.50;4.50;;;;;;;;;;7385621;19;20327;-79
2022/04/15 11:01:13;;;;;;;7.50;4.22;;;;;;;;;;7391992;19;19995;-79
2022/04/15 11:01:35;;;;;;;6.10;3.88;;;;;;;;;;7392383;19;20366;-79
2022/04/15 11:04:05;;;;;;;5.25;3.40;;;;;;;;;;7388028;19;19999;-80
2022/04/15 11:06:31;;;;;;;4.55;3.38;;;;;;;;;;7387558;19;19998;-79
2022/04/15 11:08:56;;;;;;;5.80;4.00;;;;;;;;;;7387665;19;20005;-77
2022/04/15 11:11:35;;;;;;;6.00;4.10;;;;;;;;;;7388522;19;20006;-79
2022/04/15 11:14:03;;;;;;;5.35;3.70;;;;;;;;;;7389127;19;20055;-79
2022/04/15 11:16:42;;;;;;;6.22;3.80;;;;;;;;;;7388170;19;20106;-77
2022/04/15 11:19:09;;;;;;;6.43;3.67;;;;;;;;;;7388278;19;20083;-80
2022/04/15 11:21:37;;;;;;;5.93;3.42;;;;;;;;;;7389289;19;20317;-79
2022/04/15 11:24:10;;;;;;;7.85;4.03;;;;;;;;;;7387175;19;20369;-79
2022/04/15 11:26:42;;;;;;;3.67;3.38;;;;;;;;;;7387497;19;20006;-79
2022/04/15 11:29:09;;;;;;;6.25;3.28;;;;;;;;;;7387990;19;20054;-79
2022/04/15 11:31:36;;;;;;;6.63;2.90;;;;;;;;;;7388054;19;20006;-80
2022/04/15 11:34:06;;;;;;;3.78;3.15;;;;;;;;;;7391570;19;20006;-78
2022/04/15 11:36:34;;;;;;;3.97;2.83;;;;;;;;;;7389436;19;20039;-79
2022/04/15 11:39:01;;;;;;;4.97;2.97;;;;;;;;;;7388493;19;19994;-80
2022/04/15 11:41:27;;;;;;;4.35;3.03;;;;;;;;;;7389040;19;20028;-80
2022/04/15 11:44:00;;;;;;;4.15;3.10;;;;;;;;;;7388480;19;20003;-79
2022/04/15 11:46:35;;;;;;;4.57;2.70;;;;;;;;;;7387301;19;20070;-77
2022/04/15 11:49:01;;;;;;;;;;;;;;;;;;7391045;19;20010;-78
2022/04/15 11:51:28;;;;;;;4.45;2.78;;;;;;;;;;7393413;19;19974;-77
2022/04/15 11:53:56;;;;;;;4.80;2.75;;;;;;;;;;7389365;19;19995;-77
2022/04/15 11:56:25;;;;;;;3.72;2.83;;;;;;;;;;7390438;19;20348;-78
2022/04/15 11:58:50;;;;;;;3.53;2.97;;;;;;;;;;7388596;19;20007;-79
2022/04/15 12:01:28;;;;;;;3.55;2.80;;;;;;;;;;7389348;19;20002;-78
2022/04/15 12:03:53;;;;;;;7.40;2.78;;;;;;;;;;7386933;19;20515;-78
2022/04/15 12:06:19;;;;;;;5.40;3.22;;;;;;;;;;7387228;19;20034;-77
2022/04/15 12:08:45;;;;;;;4.35;3.28;;;;;;;;;;7390455;19;20001;-78
2022/04/15 12:11:11;;;;;;;3.55;2.88;;;;;;;;;;7395323;19;20066;-78
2022/04/15 12:13:36;;;;;;;3.83;2.80;;;;;;;;;;7395086;19;19998;-78
2022/04/15 12:16:03;;;;;;;5.18;3.20;;;;;;;;;;7392976;19;20026;-78
2022/04/15 12:18:28;;;;;;;4.30;2.85;;;;;;;;;;7395223;19;20490;-77
2022/04/15 12:20:55;;;;;;;4.70;3.63;;;;;;;;;;7396662;19;20462;-77
2022/04/15 12:23:20;;;;;;;6.40;3.30;;;;;;;;;;7395388;19;20010;-78
2022/04/15 12:26:09;;;;;;;4.57;3.50;;;;;;;;;;7394250;19;20011;-79
2022/04/15 12:31:27;;;;;;;5.15;3.33;;;;;;;;;;7394428;19;20013;-79
2022/04/15 12:33:52;;;;;;;4.97;3.03;;;;;;;;;;7396651;19;20015;-79
2022/04/15 12:36:18;;;;;;;4.18;3.20;;;;;;;;;;7395239;19;20003;-79
2022/04/15 12:39:03;;;;;;;5.32;3.35;;;;;;;;;;7399063;19;20013;-79
2022/04/15 12:41:38;;;;;;;5.35;3.30;;;;;;;;;;7399565;19;20099;-79
2022/04/15 12:44:15;;;;;;;4.88;2.70;;;;;;;;;;7399112;19;20005;-80
2022/04/15 12:46:44;;;;;;;4.53;2.97;;;;;;;;;;7392193;19;20002;-79
2022/04/15 12:49:27;;;;;;;3.00;2.50;;;;;;;;;;7396030;19;19995;-79
2022/04/15 12:51:58;;;;;;;4.10;2.60;;;;;;;;;;7395426;19;20002;-80
2022/04/15 12:54:24;;;;;;;4.10;2.80;;;;;;;;;;7395348;19;20477;-79
2022/04/15 12:56:58;;;;;;;4.78;2.30;;;;;;;;;;7394120;19;20469;-80
2022/04/15 12:59:26;;;;;;;4.15;2.65;;;;;;;;;;7394687;19;20017;-80
2022/04/15 13:01:51;;;;;;;6.40;2.50;;;;;;;;;;7396183;19;20844;-80
2022/04/15 13:04:17;;;;;;;3.63;2.40;;;;;;;;;;7394069;19;20100;-79
2022/04/15 13:06:43;;;;;;;5.05;2.15;;;;;;;;;;7396174;19;20006;-80
2022/04/15 13:09:08;;;;;;;4.78;2.40;;;;;;;;;;7393373;19;20469;-79
2022/04/15 13:11:33;;;;;;;2.90;2.03;;;;;;;;;;7393967;19;20006;-80
2022/04/15 13:13:59;;;;;;;3.08;2.15;;;;;;;;;;7393112;19;20023;-77
2022/04/15 13:16:25;;;;;;;3.55;2.45;;;;;;;;;;7389561;19;20014;-79
2022/04/15 13:18:50;;;;;;;3.40;2.50;;;;;;;;;;7391631;19;20037;-79
2022/04/15 13:21:16;;;;;;;4.85;2.30;;;;;;;;;;7394754;19;19994;-80
2022/04/15 13:23:41;;;;;;;4.43;2.03;;;;;;;;;;7391463;19;19995;-77
2022/04/15 13:26:06;;;;;;;3.40;2.20;;;;;;;;;;7391035;19;20001;-79
2022/04/15 13:28:32;;;;;;;4.82;2.33;;;;;;;;;;7397649;19;19999;-79
2022/04/15 13:30:57;;;;;;;2.95;2.10;;;;;;;;;;7394602;19;20032;-79
2022/04/15 13:33:22;;;;;;;2.35;1.92;;;;;;;;;;7394274;19;20010;-80
2022/04/15 13:35:48;;;;;;;2.90;1.80;;;;;;;;;;7391498;19;20019;-77
2022/04/15 13:38:13;;;;;;;4.40;1.85;;;;;;;;;;7390742;19;19991;-79
2022/04/15 13:40:43;;;;;;;2.58;1.88;;;;;;;;;;7394603;19;19995;-79
2022/04/15 13:43:09;;;;;;;3.95;2.30;;;;;;;;;;7392436;19;20100;-77
2022/04/15 13:45:35;;;;;;;5.88;3.53;;;;;;;;;;7390064;19;20355;-79
2022/04/15 13:48:00;;;;;;;7.85;3.83;;;;;;;;;;7393594;19;20518;-77
2022/04/15 13:50:25;;;;;;;9.65;5.22;;;;;;;;;;7396204;19;20027;-80
2022/04/15 13:58:19;;;;;;;3.47;2.15;;;;;;;;;;7392490;19;20108;-80
2022/04/15 14:00:45;;;;;;;3.00;2.38;;;;;;;;;;7392118;19;20002;-79
2022/04/15 14:03:10;;;;;;;2.58;2.35;;;;;;;;;;7391277;19;19999;-80
2022/04/15 14:05:35;;;;;;;3.45;2.50;;;;;;;;;;7393989;19;19999;-80
2022/04/15 14:08:00;;;;;;;5.10;2.67;;;;;;;;;;7394161;19;20039;-79
2022/04/15 14:10:26;;;;;;;4.00;2.22;;;;;;;;;;7391238;19;19990;-80
2022/04/15 14:12:51;;;;;;;3.80;2.78;;;;;;;;;;7393710;19;20002;-79
2022/04/15 14:15:19;;;;;;;3.83;2.20;;;;;;;;;;7394870;19;19994;-80
2022/04/15 14:17:44;;;;;;;2.65;1.98;;;;;;;;;;7397434;19;19995;-80
2022/04/15 14:20:10;;;;;;;2.67;2.08;;;;;;;;;;7395759;19;20006;-79
2022/04/15 14:22:37;;;;;;;4.82;2.28;;;;;;;;;;7395480;19;20657;-79
2022/04/15 14:25:03;;;;;;;3.70;1.83;;;;;;;;;;7394066;19;20035;-79
2022/04/15 14:27:31;;;;;;;2.60;1.98;;;;;;;;;;7392457;19;20022;-79
2022/04/15 14:29:57;;;;;;;3.22;1.80;;;;;;;;;;7393859;19;20019;-79
2022/04/15 14:32:22;;;;;;;3.08;1.77;;;;;;;;;;7392043;19;19999;-79
2022/04/15 14:34:52;;;;;;;3.05;1.98;;;;;;;;;;7395809;19;20060;-79
2022/04/15 14:37:17;;;;;;;2.88;1.85;;;;;;;;;;7398669;19;19994;-79
2022/04/15 14:39:43;;;;;;;3.15;1.70;;;;;;;;;;7393355;19;20042;-79
2022/04/15 14:42:08;;;;;;;1.77;1.40;;;;;;;;;;7395146;19;20020;-79
2022/04/15 14:44:33;;;;;;;2.08;1.80;;;;;;;;;;7393866;19;19991;-79
2022/04/15 14:46:59;;;;;;;3.05;1.73;;;;;;;;;;7393190;19;20033;-80